sensor_id;sensor_type;location;lat;lon;timestamp;pressure;altitude;pressure_sealevel;temperature;humidity
48424;BME280;34232;42.502;26.014;2022-10-31T00:00:20;100311.53;;;13.84;54.42
48424;BME280;34232;42.502;26.014;2022-10-31T00:02:45;100309.88;;;13.83;54.77
48424;BME280;34232;42.502;26.014;2022-10-31T00:05:11;100310.72;;;13.74;54.98
48424;BME280;34232;42.502;26.014;2022-10-31T00:07:36;100306.84;;;13.78;55.26
48424;BME280;34232;42.502;26.014;2022-10-31T00:10:02;100312.41;;;13.75;55.04
48424;BME280;34232;42.502;26.014;2022-10-31T00:12:27;100305.69;;;13.81;55.57
48424;BME280;34232;42.502;26.014;2022-10-31T00:14:53;100303.47;;;13.86;55.59
48424;BME280;34232;42.502;26.014;2022-10-31T00:17:21;100308.34;;;13.90;55.33
48424;BME280;34232;42.502;26.014;2022-10-31T00:19:46;100307.09;;;13.85;55.83
48424;BME280;34232;42.502;26.014;2022-10-31T00:22:12;100286.06;;;13.83;55.67
48424;BME280;34232;42.502;26.014;2022-10-31T00:24:37;100309.59;;;13.96;55.79
48424;BME280;34232;42.502;26.014;2022-10-31T00:27:03;100303.47;;;13.95;55.78
48424;BME280;34232;42.502;26.014;2022-10-31T00:29:28;100290.97;;;13.78;56.08
48424;BME280;34232;42.502;26.014;2022-10-31T00:31:53;100290.78;;;13.89;56.09
48424;BME280;34232;42.502;26.014;2022-10-31T00:34:19;100280.63;;;13.94;56.07
48424;BME280;34232;42.502;26.014;2022-10-31T00:36:44;100285.31;;;14.00;56.04
48424;BME280;34232;42.502;26.014;2022-10-31T00:39:09;100288.38;;;14.06;55.99
48424;BME280;34232;42.502;26.014;2022-10-31T00:41:35;100289.50;;;14.03;55.59
48424;BME280;34232;42.502;26.014;2022-10-31T00:44:00;100292.81;;;14.15;56.13
48424;BME280;34232;42.502;26.014;2022-10-31T00:46:26;100299.22;;;14.22;55.49
48424;BME280;34232;42.502;26.014;2022-10-31T00:48:51;100302.28;;;14.27;55.62
48424;BME280;34232;42.502;26.014;2022-10-31T00:51:17;100296.16;;;14.26;55.25
48424;BME280;34232;42.502;26.014;2022-10-31T00:53:42;100291.28;;;14.22;55.11
48424;BME280;34232;42.502;26.014;2022-10-31T00:56:07;100299.72;;;14.35;55.03
48424;BME280;34232;42.502;26.014;2022-10-31T00:58:33;100299.72;;;14.35;55.55
48424;BME280;34232;42.502;26.014;2022-10-31T01:01:00;100301.69;;;14.33;55.58
48424;BME280;34232;42.502;26.014;2022-10-31T01:03:31;100291.69;;;14.27;55.49
48424;BME280;34232;42.502;26.014;2022-10-31T01:05:58;100296.38;;;14.33;55.39
48424;BME280;34232;42.502;26.014;2022-10-31T01:08:24;100310.03;;;14.38;55.51
48424;BME280;34232;42.502;26.014;2022-10-31T01:11:11;100309.50;;;14.34;55.96
48424;BME280;34232;42.502;26.014;2022-10-31T01:13:36;100304.63;;;14.30;56.35
48424;BME280;34232;42.502;26.014;2022-10-31T01:16:04;100308.94;;;14.31;56.75
48424;BME280;34232;42.502;26.014;2022-10-31T01:18:29;100309.25;;;14.28;56.99
48424;BME280;34232;42.502;26.014;2022-10-31T01:21:06;100307.03;;;14.23;57.34
48424;BME280;34232;42.502;26.014;2022-10-31T01:23:32;100304.53;;;14.22;57.78
48424;BME280;34232;42.502;26.014;2022-10-31T01:25:59;100302.56;;;14.24;57.87
48424;BME280;34232;42.502;26.014;2022-10-31T01:28:25;100301.97;;;14.30;57.77
48424;BME280;34232;42.502;26.014;2022-10-31T01:30:50;100299.63;;;14.27;57.47
48424;BME280;34232;42.502;26.014;2022-10-31T01:33:16;100315.63;;;14.35;57.71
48424;BME280;34232;42.502;26.014;2022-10-31T01:35:41;100308.25;;;14.29;58.06
48424;BME280;34232;42.502;26.014;2022-10-31T01:38:06;100313.13;;;14.33;58.09
48424;BME280;34232;42.502;26.014;2022-10-31T01:40:32;100303.94;;;14.28;58.35
48424;BME280;34232;42.502;26.014;2022-10-31T01:42:59;100311.31;;;14.34;58.97
48424;BME280;34232;42.502;26.014;2022-10-31T01:45:25;100312.69;;;14.38;58.71
48424;BME280;34232;42.502;26.014;2022-10-31T01:47:50;100312.13;;;14.34;59.23
48424;BME280;34232;42.502;26.014;2022-10-31T01:50:30;100312.28;;;14.33;59.65
48424;BME280;34232;42.502;26.014;2022-10-31T01:52:59;100312.56;;;14.30;59.40
48424;BME280;34232;42.502;26.014;2022-10-31T01:55:28;100309.25;;;14.28;59.34
48424;BME280;34232;42.502;26.014;2022-10-31T01:57:59;100295.09;;;14.10;59.38
48424;BME280;34232;42.502;26.014;2022-10-31T02:00:27;100300.34;;;14.19;59.46
48424;BME280;34232;42.502;26.014;2022-10-31T02:02:52;100295.59;;;14.23;59.94
48424;BME280;34232;42.502;26.014;2022-10-31T02:05:23;100301.16;;;14.20;59.15
48424;BME280;34232;42.502;26.014;2022-10-31T02:08:28;100308.31;;;14.10;59.80
48424;BME280;34232;42.502;26.014;2022-10-31T02:10:54;100306.38;;;14.12;59.93
48424;BME280;34232;42.502;26.014;2022-10-31T02:13:22;100300.75;;;14.15;59.29
48424;BME280;34232;42.502;26.014;2022-10-31T02:15:52;100315.09;;;14.22;59.32
48424;BME280;34232;42.502;26.014;2022-10-31T02:18:18;100311.91;;;14.28;59.18
48424;BME280;34232;42.502;26.014;2022-10-31T02:21:07;100312.28;;;14.33;58.97
48424;BME280;34232;42.502;26.014;2022-10-31T02:26:41;100302.94;;;14.29;58.94
48424;BME280;34232;42.502;26.014;2022-10-31T02:32:14;100315.34;;;14.38;58.65
48424;BME280;34232;42.502;26.014;2022-10-31T02:37:48;100313.72;;;14.27;58.75
48424;BME280;34232;42.502;26.014;2022-10-31T02:46:14;100332.06;;;14.29;59.24
48424;BME280;34232;42.502;26.014;2022-10-31T02:48:41;100334.72;;;14.29;58.93
48424;BME280;34232;42.502;26.014;2022-10-31T02:51:09;100332.06;;;14.29;59.11
48424;BME280;34232;42.502;26.014;2022-10-31T02:53:37;100335.56;;;14.29;59.38
48424;BME280;34232;42.502;26.014;2022-10-31T02:58:33;100341.88;;;14.28;59.55
48424;BME280;34232;42.502;26.014;2022-10-31T03:03:33;100351.91;;;14.25;59.17
48424;BME280;34232;42.502;26.014;2022-10-31T03:08:47;100347.44;;;14.16;59.62
48424;BME280;34232;42.502;26.014;2022-10-31T03:11:18;100343.53;;;14.20;59.08
48424;BME280;34232;42.502;26.014;2022-10-31T03:16:50;100342.28;;;14.24;58.03
48424;BME280;34232;42.502;26.014;2022-10-31T03:19:24;100351.91;;;14.25;58.01
48424;BME280;34232;42.502;26.014;2022-10-31T03:22:01;100350.94;;;14.26;57.89
48424;BME280;34232;42.502;26.014;2022-10-31T03:24:29;100358.41;;;14.30;57.55
48424;BME280;34232;42.502;26.014;2022-10-31T03:26:58;100361.50;;;14.26;57.62
48424;BME280;34232;42.502;26.014;2022-10-31T03:29:32;100359.56;;;14.28;57.89
48424;BME280;34232;42.502;26.014;2022-10-31T03:32:21;100358.97;;;14.34;58.01
48424;BME280;34232;42.502;26.014;2022-10-31T03:34:50;100341.88;;;14.28;58.05
48424;BME280;34232;42.502;26.014;2022-10-31T03:37:19;100354.38;;;14.36;58.16
48424;BME280;34232;42.502;26.014;2022-10-31T03:39:47;100358.56;;;14.39;57.76
48424;BME280;34232;42.502;26.014;2022-10-31T03:42:16;100360.13;;;14.41;58.09
48424;BME280;34232;42.502;26.014;2022-10-31T03:44:46;100367.22;;;14.41;58.28
48424;BME280;34232;42.502;26.014;2022-10-31T03:47:15;100365.66;;;14.38;58.71
48424;BME280;34232;42.502;26.014;2022-10-31T03:49:40;100371.94;;;14.37;58.68
48424;BME280;34232;42.502;26.014;2022-10-31T03:52:21;100372.22;;;14.34;59.18
48424;BME280;34232;42.502;26.014;2022-10-31T03:54:56;100356.91;;;14.28;59.57
48424;BME280;34232;42.502;26.014;2022-10-31T03:57:39;100360.81;;;14.24;59.78
48424;BME280;34232;42.502;26.014;2022-10-31T04:00:12;100348.84;;;14.20;59.95
48424;BME280;34232;42.502;26.014;2022-10-31T04:02:42;100355.25;;;14.27;59.55
48424;BME280;34232;42.502;26.014;2022-10-31T04:05:10;100350.34;;;14.32;59.13
48424;BME280;34232;42.502;26.014;2022-10-31T04:07:41;100363.28;;;14.35;59.07
48424;BME280;34232;42.502;26.014;2022-10-31T04:10:10;100361.09;;;14.40;58.39
48424;BME280;34232;42.502;26.014;2022-10-31T04:12:38;100358.28;;;14.32;58.47
48424;BME280;34232;42.502;26.014;2022-10-31T04:15:06;100371.25;;;14.35;58.74
48424;BME280;34232;42.502;26.014;2022-10-31T04:17:36;100376.25;;;14.38;58.73
48424;BME280;34232;42.502;26.014;2022-10-31T04:20:04;100371.69;;;14.40;58.44
48424;BME280;34232;42.502;26.014;2022-10-31T04:22:31;100385.63;;;14.42;58.36
48424;BME280;34232;42.502;26.014;2022-10-31T04:24:56;100395.53;;;14.40;57.40
48424;BME280;34232;42.502;26.014;2022-10-31T04:27:22;100391.44;;;14.36;57.28
48424;BME280;34232;42.502;26.014;2022-10-31T04:29:47;100385.31;;;14.35;56.73
48424;BME280;34232;42.502;26.014;2022-10-31T04:32:16;100405.41;;;14.38;56.13
48424;BME280;34232;42.502;26.014;2022-10-31T04:34:41;100398.97;;;14.31;55.27
48424;BME280;34232;42.502;26.014;2022-10-31T04:37:06;100400.38;;;14.35;54.83
48424;BME280;34232;42.502;26.014;2022-10-31T04:39:32;100407.06;;;14.39;54.77
48424;BME280;34232;42.502;26.014;2022-10-31T04:41:57;100419.63;;;14.37;54.77
48424;BME280;34232;42.502;26.014;2022-10-31T04:44:23;100410.16;;;14.25;54.74
48424;BME280;34232;42.502;26.014;2022-10-31T04:46:48;100409.56;;;14.31;54.77
48424;BME280;34232;42.502;26.014;2022-10-31T04:49:14;100403.59;;;14.29;54.41
48424;BME280;34232;42.502;26.014;2022-10-31T04:51:39;100397.19;;;14.22;54.50
48424;BME280;34232;42.502;26.014;2022-10-31T04:54:05;100416.28;;;14.35;54.60
48424;BME280;34232;42.502;26.014;2022-10-31T04:56:30;100415.47;;;14.25;54.75
48424;BME280;34232;42.502;26.014;2022-10-31T04:58:56;100421.84;;;14.32;55.31
48424;BME280;34232;42.502;26.014;2022-10-31T05:01:21;100425.19;;;14.34;55.23
48424;BME280;34232;42.502;26.014;2022-10-31T05:03:47;100422.97;;;14.39;55.24
48424;BME280;34232;42.502;26.014;2022-10-31T05:06:12;100426.91;;;14.45;55.51
48424;BME280;34232;42.502;26.014;2022-10-31T05:08:37;100433.00;;;14.45;55.84
48424;BME280;34232;42.502;26.014;2022-10-31T05:11:03;100434.41;;;14.49;54.83
48424;BME280;34232;42.502;26.014;2022-10-31T05:13:29;100441.22;;;14.52;54.61
48424;BME280;34232;42.502;26.014;2022-10-31T05:15:54;100433.69;;;14.47;55.31
48424;BME280;34232;42.502;26.014;2022-10-31T05:18:20;100448.06;;;14.54;54.80
48424;BME280;34232;42.502;26.014;2022-10-31T05:20:45;100442.63;;;14.46;54.81
48424;BME280;34232;42.502;26.014;2022-10-31T05:23:11;100453.63;;;14.51;54.81
48424;BME280;34232;42.502;26.014;2022-10-31T05:25:36;100463.69;;;14.57;54.47
48424;BME280;34232;42.502;26.014;2022-10-31T05:28:02;100464.38;;;14.59;55.27
48424;BME280;34232;42.502;26.014;2022-10-31T05:30:29;100461.16;;;14.46;55.08
48424;BME280;34232;42.502;26.014;2022-10-31T05:32:56;100462.28;;;14.53;54.81
48424;BME280;34232;42.502;26.014;2022-10-31T05:35:26;100472.75;;;14.55;55.30
48424;BME280;34232;42.502;26.014;2022-10-31T05:37:52;100468.13;;;14.47;55.08
48424;BME280;34232;42.502;26.014;2022-10-31T05:40:21;100479.44;;;14.49;54.87
48424;BME280;34232;42.502;26.014;2022-10-31T05:42:47;100480.56;;;14.56;53.58
48424;BME280;34232;42.502;26.014;2022-10-31T05:45:17;100475.13;;;14.48;50.65
48424;BME280;34232;42.502;26.014;2022-10-31T05:47:49;100465.63;;;14.36;51.04
48424;BME280;34232;42.502;26.014;2022-10-31T05:50:18;100478.44;;;14.31;50.85
48424;BME280;34232;42.502;26.014;2022-10-31T05:52:44;100476.47;;;14.33;50.76
48424;BME280;34232;42.502;26.014;2022-10-31T05:55:09;100484.28;;;14.34;50.21
48424;BME280;34232;42.502;26.014;2022-10-31T05:57:35;100482.66;;;14.43;50.45
48424;BME280;34232;42.502;26.014;2022-10-31T06:00:00;100491.84;;;14.58;50.84
48424;BME280;34232;42.502;26.014;2022-10-31T06:02:26;100487.09;;;14.62;50.04
48424;BME280;34232;42.502;26.014;2022-10-31T06:04:52;100491.56;;;14.71;51.13
48424;BME280;34232;42.502;26.014;2022-10-31T06:07:17;100490.41;;;14.83;51.47
48424;BME280;34232;42.502;26.014;2022-10-31T06:09:43;100492.22;;;14.92;50.10
48424;BME280;34232;42.502;26.014;2022-10-31T06:12:08;100491.19;;;15.03;50.32
48424;BME280;34232;42.502;26.014;2022-10-31T06:14:33;100499.81;;;15.15;50.00
48424;BME280;34232;42.502;26.014;2022-10-31T06:16:59;100492.13;;;15.21;50.09
48424;BME280;34232;42.502;26.014;2022-10-31T06:19:24;100496.94;;;15.35;49.72
48424;BME280;34232;42.502;26.014;2022-10-31T06:21:49;100495.22;;;15.44;49.62
48424;BME280;34232;42.502;26.014;2022-10-31T06:24:15;100506.63;;;15.64;50.12
48424;BME280;34232;42.502;26.014;2022-10-31T06:26:43;100516.88;;;15.77;50.21
48424;BME280;34232;42.502;26.014;2022-10-31T06:29:08;100518.38;;;15.89;50.13
48424;BME280;34232;42.502;26.014;2022-10-31T06:31:33;100525.66;;;16.04;50.08
48424;BME280;34232;42.502;26.014;2022-10-31T06:33:59;100517.88;;;16.21;49.92
48424;BME280;34232;42.502;26.014;2022-10-31T06:36:24;100528.56;;;16.29;49.56
48424;BME280;34232;42.502;26.014;2022-10-31T06:38:50;100514.81;;;16.33;49.11
48424;BME280;34232;42.502;26.014;2022-10-31T06:41:15;100523.16;;;16.56;49.23
48424;BME280;34232;42.502;26.014;2022-10-31T06:43:40;100524.34;;;16.71;49.31
48424;BME280;34232;42.502;26.014;2022-10-31T06:46:06;100511.47;;;16.85;49.02
48424;BME280;34232;42.502;26.014;2022-10-31T06:48:32;100510.22;;;16.97;48.33
48424;BME280;34232;42.502;26.014;2022-10-31T06:51:00;100518.59;;;17.10;48.71
48424;BME280;34232;42.502;26.014;2022-10-31T06:53:27;100513.34;;;17.18;49.05
48424;BME280;34232;42.502;26.014;2022-10-31T06:55:55;100518.38;;;17.29;48.89
48424;BME280;34232;42.502;26.014;2022-10-31T06:58:21;100510.44;;;17.37;49.60
48424;BME280;34232;42.502;26.014;2022-10-31T07:00:46;100506.47;;;17.41;49.53
48424;BME280;34232;42.502;26.014;2022-10-31T07:03:13;100504.88;;;17.57;49.19
48424;BME280;34232;42.502;26.014;2022-10-31T07:05:38;100506.47;;;17.67;49.67
48424;BME280;34232;42.502;26.014;2022-10-31T07:08:06;100502.34;;;17.81;49.45
48424;BME280;34232;42.502;26.014;2022-10-31T07:10:33;100512.03;;;17.98;49.21
48424;BME280;34232;42.502;26.014;2022-10-31T07:13:01;100513.75;;;18.24;49.80
48424;BME280;34232;42.502;26.014;2022-10-31T07:15:29;100503.13;;;18.48;48.89
48424;BME280;34232;42.502;26.014;2022-10-31T07:18:06;100503.81;;;18.74;47.91
48424;BME280;34232;42.502;26.014;2022-10-31T07:20:32;100506.44;;;18.91;46.14
48424;BME280;34232;42.502;26.014;2022-10-31T07:22:58;100495.06;;;19.05;47.09
48424;BME280;34232;42.502;26.014;2022-10-31T07:25:24;100501.19;;;19.30;47.13
48424;BME280;34232;42.502;26.014;2022-10-31T07:27:50;100506.31;;;19.55;46.40
48424;BME280;34232;42.502;26.014;2022-10-31T07:30:16;100505.53;;;19.78;46.84
48424;BME280;34232;42.502;26.014;2022-10-31T07:32:49;100517.59;;;20.05;46.41
48424;BME280;34232;42.502;26.014;2022-10-31T07:35:20;100512.63;;;20.24;45.78
48424;BME280;34232;42.502;26.014;2022-10-31T07:37:46;100510.88;;;20.40;45.17
48424;BME280;34232;42.502;26.014;2022-10-31T07:40:12;100514.41;;;20.55;45.07
48424;BME280;34232;42.502;26.014;2022-10-31T07:42:42;100508.44;;;20.68;44.90
48424;BME280;34232;42.502;26.014;2022-10-31T07:45:10;100511.13;;;20.68;44.67
48424;BME280;34232;42.502;26.014;2022-10-31T07:47:52;100511.44;;;20.73;44.81
48424;BME280;34232;42.502;26.014;2022-10-31T07:50:27;100511.53;;;20.79;44.53
48424;BME280;34232;42.502;26.014;2022-10-31T07:53:08;100509.69;;;20.94;44.49
48424;BME280;34232;42.502;26.014;2022-10-31T07:55:34;100502.91;;;21.07;44.30
48424;BME280;34232;42.502;26.014;2022-10-31T07:58:08;100511.72;;;21.30;44.11
48424;BME280;34232;42.502;26.014;2022-10-31T08:00:35;100501.44;;;21.48;43.12
48424;BME280;34232;42.502;26.014;2022-10-31T08:05:28;100504.00;;;21.86;43.14
48424;BME280;34232;42.502;26.014;2022-10-31T08:07:54;100494.72;;;22.03;42.56
48424;BME280;34232;42.502;26.014;2022-10-31T08:10:20;100502.41;;;22.27;42.04
48424;BME280;34232;42.502;26.014;2022-10-31T08:12:45;100508.78;;;22.48;41.95
48424;BME280;34232;42.502;26.014;2022-10-31T08:15:11;100497.31;;;22.54;41.13
48424;BME280;34232;42.502;26.014;2022-10-31T08:17:36;100505.50;;;22.74;40.98
48424;BME280;34232;42.502;26.014;2022-10-31T08:20:04;100503.38;;;22.90;40.02
48424;BME280;34232;42.502;26.014;2022-10-31T08:22:30;100503.97;;;23.14;40.03
48424;BME280;34232;42.502;26.014;2022-10-31T08:24:55;100499.94;;;23.31;39.47
48424;BME280;34232;42.502;26.014;2022-10-31T08:27:20;100501.03;;;23.43;38.95
48424;BME280;34232;42.502;26.014;2022-10-31T08:29:46;100508.41;;;23.62;38.42
48424;BME280;34232;42.502;26.014;2022-10-31T08:32:11;100509.47;;;23.75;38.97
48424;BME280;34232;42.502;26.014;2022-10-31T08:34:37;100509.13;;;23.91;38.25
48424;BME280;34232;42.502;26.014;2022-10-31T08:37:02;100504.00;;;24.02;37.58
48424;BME280;34232;42.502;26.014;2022-10-31T08:39:27;100496.56;;;24.11;36.91
48424;BME280;34232;42.502;26.014;2022-10-31T08:41:53;100497.44;;;24.18;37.09
48424;BME280;34232;42.502;26.014;2022-10-31T08:44:18;100500.78;;;24.33;36.95
48424;BME280;34232;42.502;26.014;2022-10-31T08:46:44;100499.16;;;24.46;37.16
48424;BME280;34232;42.502;26.014;2022-10-31T08:49:09;100509.69;;;24.54;36.80
48424;BME280;34232;42.502;26.014;2022-10-31T08:51:34;100510.31;;;24.69;36.72
48424;BME280;34232;42.502;26.014;2022-10-31T08:54:00;100503.72;;;24.78;35.34
48424;BME280;34232;42.502;26.014;2022-10-31T08:56:25;100508.06;;;24.92;35.75
48424;BME280;34232;42.502;26.014;2022-10-31T08:58:52;100513.44;;;25.05;36.01
48424;BME280;34232;42.502;26.014;2022-10-31T09:01:18;100509.31;;;25.09;35.63
48424;BME280;34232;42.502;26.014;2022-10-31T09:03:43;100506.59;;;25.23;35.29
48424;BME280;34232;42.502;26.014;2022-10-31T09:06:09;100501.16;;;25.36;35.15
48424;BME280;34232;42.502;26.014;2022-10-31T09:08:35;100502.34;;;25.53;34.91
48424;BME280;34232;42.502;26.014;2022-10-31T09:11:01;100502.94;;;25.68;34.19
48424;BME280;34232;42.502;26.014;2022-10-31T09:13:27;100503.97;;;25.74;34.67
48424;BME280;34232;42.502;26.014;2022-10-31T09:15:52;100498.09;;;25.84;34.63
48424;BME280;34232;42.502;26.014;2022-10-31T09:18:20;100502.22;;;25.93;34.14
48424;BME280;34232;42.502;26.014;2022-10-31T09:20:47;100507.53;;;26.06;33.31
48424;BME280;34232;42.502;26.014;2022-10-31T09:23:16;100499.41;;;26.12;33.40
48424;BME280;34232;42.502;26.014;2022-10-31T09:25:47;100505.34;;;26.28;33.19
48424;BME280;34232;42.502;26.014;2022-10-31T09:28:15;100506.78;;;26.30;32.61
48424;BME280;34232;42.502;26.014;2022-10-31T09:30:41;100499.53;;;26.24;33.23
48424;BME280;34232;42.502;26.014;2022-10-31T09:33:09;100498.44;;;26.38;33.23
48424;BME280;34232;42.502;26.014;2022-10-31T09:35:35;100493.81;;;26.45;32.70
48424;BME280;34232;42.502;26.014;2022-10-31T09:38:03;100499.25;;;26.64;32.48
48424;BME280;34232;42.502;26.014;2022-10-31T09:51:37;100491.16;;;26.89;32.25
48424;BME280;34232;42.502;26.014;2022-10-31T09:54:43;100487.34;;;26.96;31.45
48424;BME280;34232;42.502;26.014;2022-10-31T09:57:10;100485.75;;;26.89;31.34
48424;BME280;34232;42.502;26.014;2022-10-31T09:59:39;100491.50;;;26.74;31.45
48424;BME280;34232;42.502;26.014;2022-10-31T10:02:14;100481.50;;;26.49;31.87
48424;BME280;34232;42.502;26.014;2022-10-31T10:04:51;100487.13;;;26.48;32.14
48424;BME280;34232;42.502;26.014;2022-10-31T10:15:35;100473.56;;;27.04;31.28
48424;BME280;34232;42.502;26.014;2022-10-31T10:20:39;100465.16;;;27.31;31.05
48424;BME280;34232;42.502;26.014;2022-10-31T10:25:50;100461.50;;;27.43;30.70
48424;BME280;34232;42.502;26.014;2022-10-31T10:28:33;100460.19;;;27.46;30.35
48424;BME280;34232;42.502;26.014;2022-10-31T10:31:23;100460.66;;;27.43;30.45
48424;BME280;34232;42.502;26.014;2022-10-31T10:34:02;100452.47;;;27.49;30.45
48424;BME280;34232;42.502;26.014;2022-10-31T10:39:24;100451.84;;;27.47;30.82
48424;BME280;34232;42.502;26.014;2022-10-31T10:41:51;100451.03;;;27.47;30.74
48424;BME280;34232;42.502;26.014;2022-10-31T10:44:41;100450.91;;;27.42;30.44
48424;BME280;34232;42.502;26.014;2022-10-31T10:47:34;100458.53;;;27.45;30.43
48424;BME280;34232;42.502;26.014;2022-10-31T10:50:25;100443.25;;;27.39;30.54
48424;BME280;34232;42.502;26.014;2022-10-31T10:53:02;100446.16;;;27.37;30.87
48424;BME280;34232;42.502;26.014;2022-10-31T10:55:36;100448.19;;;27.42;30.84
48424;BME280;34232;42.502;26.014;2022-10-31T10:58:07;100424.69;;;27.24;30.51
48424;BME280;34232;42.502;26.014;2022-10-31T11:00:44;100439.66;;;27.27;30.83
48424;BME280;34232;42.502;26.014;2022-10-31T11:03:16;100438.66;;;27.21;30.37
48424;BME280;34232;42.502;26.014;2022-10-31T11:05:57;100438.50;;;27.16;30.81
48424;BME280;34232;42.502;26.014;2022-10-31T11:08:32;100440.84;;;26.94;30.18
48424;BME280;34232;42.502;26.014;2022-10-31T11:11:28;100431.94;;;26.87;30.77
48424;BME280;34232;42.502;26.014;2022-10-31T11:14:05;100428.94;;;26.77;31.19
48424;BME280;34232;42.502;26.014;2022-10-31T11:16:38;100424.41;;;26.71;30.92
48424;BME280;34232;42.502;26.014;2022-10-31T11:21:41;100421.84;;;26.58;31.12
48424;BME280;34232;42.502;26.014;2022-10-31T11:26:36;100416.38;;;26.39;31.26
48424;BME280;34232;42.502;26.014;2022-10-31T11:29:04;100421.81;;;26.33;31.70
48424;BME280;34232;42.502;26.014;2022-10-31T11:31:31;100414.81;;;26.25;30.96
48424;BME280;34232;42.502;26.014;2022-10-31T11:34:03;100411.59;;;26.10;31.62
48424;BME280;34232;42.502;26.014;2022-10-31T11:36:35;100421.28;;;25.93;31.75
48424;BME280;34232;42.502;26.014;2022-10-31T11:39:05;100414.31;;;25.78;31.75
48424;BME280;34232;42.502;26.014;2022-10-31T11:41:38;100397.38;;;25.58;32.36
48424;BME280;34232;42.502;26.014;2022-10-31T11:44:12;100403.56;;;25.65;31.99
48424;BME280;34232;42.502;26.014;2022-10-31T11:46:41;100410.66;;;25.53;32.91
48424;BME280;34232;42.502;26.014;2022-10-31T11:49:29;100403.63;;;25.52;32.90
48424;BME280;34232;42.502;26.014;2022-10-31T11:51:59;100403.63;;;25.52;32.47
48424;BME280;34232;42.502;26.014;2022-10-31T11:54:31;100399.09;;;25.46;32.98
48424;BME280;34232;42.502;26.014;2022-10-31T11:56:58;100398.28;;;25.45;33.35
48424;BME280;34232;42.502;26.014;2022-10-31T11:59:29;100394.75;;;25.45;32.96
48424;BME280;34232;42.502;26.014;2022-10-31T12:01:56;100389.56;;;25.43;32.88
48424;BME280;34232;42.502;26.014;2022-10-31T12:04:37;100400.50;;;25.55;32.82
48424;BME280;34232;42.502;26.014;2022-10-31T12:07:04;100383.78;;;25.33;32.95
48424;BME280;34232;42.502;26.014;2022-10-31T12:09:33;100409.06;;;25.39;33.05
48424;BME280;34232;42.502;26.014;2022-10-31T12:26:21;100397.94;;;25.29;33.39
48424;BME280;34232;42.502;26.014;2022-10-31T12:29:09;100401.66;;;25.28;33.30
48424;BME280;34232;42.502;26.014;2022-10-31T12:31:51;100394.84;;;25.19;33.32
48424;BME280;34232;42.502;26.014;2022-10-31T12:46:00;100402.97;;;25.12;33.56
48424;BME280;34232;42.502;26.014;2022-10-31T12:59:04;100398.78;;;25.23;33.63
48424;BME280;34232;42.502;26.014;2022-10-31T13:01:35;100404.59;;;25.20;33.80
48424;BME280;34232;42.502;26.014;2022-10-31T13:06:56;100402.34;;;25.10;33.83
48424;BME280;34232;42.502;26.014;2022-10-31T13:09:31;100411.69;;;25.07;33.73
48424;BME280;34232;42.502;26.014;2022-10-31T13:12:04;100402.56;;;25.08;33.58
48424;BME280;34232;42.502;26.014;2022-10-31T13:14:37;100407.75;;;25.03;33.83
48424;BME280;34232;42.502;26.014;2022-10-31T13:17:05;100406.09;;;25.02;33.87
48424;BME280;34232;42.502;26.014;2022-10-31T13:19:36;100406.91;;;25.09;33.86
48424;BME280;34232;42.502;26.014;2022-10-31T13:22:17;100406.69;;;25.11;33.80
48424;BME280;34232;42.502;26.014;2022-10-31T13:24:56;100399.25;;;25.06;33.64
48424;BME280;34232;42.502;26.014;2022-10-31T13:27:30;100409.44;;;24.98;33.88
48424;BME280;34232;42.502;26.014;2022-10-31T13:30:13;100412.97;;;24.98;33.93
48424;BME280;34232;42.502;26.014;2022-10-31T13:35:55;100417.09;;;24.88;33.96
48424;BME280;34232;42.502;26.014;2022-10-31T13:41:27;100416.91;;;24.76;34.19
48424;BME280;34232;42.502;26.014;2022-10-31T13:44:23;100419.59;;;24.76;34.17
48424;BME280;34232;42.502;26.014;2022-10-31T13:46:50;100421.06;;;24.65;34.28
48424;BME280;34232;42.502;26.014;2022-10-31T13:54:39;100433.28;;;24.61;34.17
48424;BME280;34232;42.502;26.014;2022-10-31T13:57:31;100431.22;;;24.57;34.20
48424;BME280;34232;42.502;26.014;2022-10-31T14:00:01;100428.94;;;24.54;34.42
48424;BME280;34232;42.502;26.014;2022-10-31T14:02:35;100420.06;;;24.47;34.66
48424;BME280;34232;42.502;26.014;2022-10-31T14:05:03;100426.25;;;24.40;34.56
48424;BME280;34232;42.502;26.014;2022-10-31T14:07:30;100435.34;;;24.39;34.64
48424;BME280;34232;42.502;26.014;2022-10-31T14:10:06;100428.72;;;24.35;34.77
48424;BME280;34232;42.502;26.014;2022-10-31T14:12:47;100437.03;;;24.27;35.05
48424;BME280;34232;42.502;26.014;2022-10-31T14:15:26;100442.81;;;24.24;34.80
48424;BME280;34232;42.502;26.014;2022-10-31T14:17:58;100420.84;;;24.14;35.05
48424;BME280;34232;42.502;26.014;2022-10-31T14:22:58;100441.50;;;24.07;35.31
48424;BME280;34232;42.502;26.014;2022-10-31T14:25:35;100444.59;;;24.04;35.31
48424;BME280;34232;42.502;26.014;2022-10-31T14:28:33;100446.91;;;24.00;35.04
48424;BME280;34232;42.502;26.014;2022-10-31T14:31:00;100448.94;;;23.92;35.25
48424;BME280;34232;42.502;26.014;2022-10-31T14:33:30;100449.97;;;23.91;35.38
48424;BME280;34232;42.502;26.014;2022-10-31T14:36:11;100436.09;;;23.81;35.51
48424;BME280;34232;42.502;26.014;2022-10-31T14:48:24;100449.66;;;23.59;36.14
48424;BME280;34232;42.502;26.014;2022-10-31T14:50:48;100456.63;;;23.47;35.98
48424;BME280;34232;42.502;26.014;2022-10-31T14:53:23;100457.00;;;23.44;36.06
48424;BME280;34232;42.502;26.014;2022-10-31T14:55:53;100459.06;;;23.42;36.18